sensor_id;sensor_type;location;lat;lon;timestamp;P1;durP1;ratioP1;P2;durP2;ratioP2
21657;SDS011;10990;48.174;9.782;2022-11-03T00:00:33;12.67;;;3.70;;
21657;SDS011;10990;48.174;9.782;2022-11-03T00:03:00;18.53;;;4.07;;
21657;SDS011;10990;48.174;9.782;2022-11-03T00:05:26;12.40;;;3.87;;
21657;SDS011;10990;48.174;9.782;2022-11-03T00:08:25;12.70;;;3.67;;
21657;SDS011;10990;48.174;9.782;2022-11-03T00:10:52;8.63;;;3.73;;
21657;SDS011;10990;48.174;9.782;2022-11-03T00:13:19;15.87;;;4.00;;
21657;SDS011;10990;48.174;9.782;2022-11-03T00:15:50;18.43;;;4.03;;
21657;SDS011;10990;48.174;9.782;2022-11-03T00:18:17;14.77;;;4.07;;
21657;SDS011;10990;48.174;9.782;2022-11-03T00:20:44;11.87;;;3.57;;
21657;SDS011;10990;48.174;9.782;2022-11-03T00:23:10;20.20;;;4.13;;
21657;SDS011;10990;48.174;9.782;2022-11-03T00:25:37;15.03;;;3.73;;
21657;SDS011;10990;48.174;9.782;2022-11-03T00:28:04;11.20;;;4.13;;
21657;SDS011;10990;48.174;9.782;2022-11-03T00:30:31;8.87;;;3.90;;
21657;SDS011;10990;48.174;9.782;2022-11-03T00:32:59;12.10;;;3.70;;
21657;SDS011;10990;48.174;9.782;2022-11-03T00:35:26;14.60;;;4.30;;
21657;SDS011;10990;48.174;9.782;2022-11-03T00:37:52;9.87;;;4.20;;
21657;SDS011;10990;48.174;9.782;2022-11-03T00:40:19;8.07;;;4.10;;
21657;SDS011;10990;48.174;9.782;2022-11-03T00:42:46;12.60;;;3.80;;
21657;SDS011;10990;48.174;9.782;2022-11-03T00:45:13;9.50;;;4.20;;
21657;SDS011;10990;48.174;9.782;2022-11-03T00:47:39;15.83;;;4.13;;
21657;SDS011;10990;48.174;9.782;2022-11-03T00:50:28;8.20;;;4.03;;
21657;SDS011;10990;48.174;9.782;2022-11-03T00:52:55;17.60;;;4.57;;
21657;SDS011;10990;48.174;9.782;2022-11-03T00:55:22;41.00;;;5.50;;
21657;SDS011;10990;48.174;9.782;2022-11-03T00:57:49;14.10;;;4.43;;
21657;SDS011;10990;48.174;9.782;2022-11-03T01:00:18;13.13;;;4.17;;
21657;SDS011;10990;48.174;9.782;2022-11-03T01:02:45;12.73;;;4.17;;
21657;SDS011;10990;48.174;9.782;2022-11-03T01:05:12;20.53;;;4.23;;
21657;SDS011;10990;48.174;9.782;2022-11-03T01:07:57;18.60;;;4.60;;
21657;SDS011;10990;48.174;9.782;2022-11-03T01:10:24;9.70;;;3.77;;
21657;SDS011;10990;48.174;9.782;2022-11-03T01:12:53;24.47;;;3.77;;
21657;SDS011;10990;48.174;9.782;2022-11-03T01:15:20;9.17;;;3.73;;
21657;SDS011;10990;48.174;9.782;2022-11-03T01:17:47;8.70;;;3.50;;
21657;SDS011;10990;48.174;9.782;2022-11-03T01:20:14;18.60;;;4.00;;
21657;SDS011;10990;48.174;9.782;2022-11-03T01:22:40;13.57;;;3.83;;
21657;SDS011;10990;48.174;9.782;2022-11-03T01:25:09;18.43;;;3.50;;
21657;SDS011;10990;48.174;9.782;2022-11-03T01:27:36;18.30;;;4.03;;
21657;SDS011;10990;48.174;9.782;2022-11-03T01:30:03;5.47;;;3.10;;
21657;SDS011;10990;48.174;9.782;2022-11-03T01:32:30;7.97;;;3.03;;
21657;SDS011;10990;48.174;9.782;2022-11-03T01:34:57;24.97;;;4.47;;
21657;SDS011;10990;48.174;9.782;2022-11-03T01:37:23;11.50;;;3.07;;
21657;SDS011;10990;48.174;9.782;2022-11-03T01:39:50;33.60;;;5.50;;
21657;SDS011;10990;48.174;9.782;2022-11-03T01:42:19;10.80;;;3.10;;
21657;SDS011;10990;48.174;9.782;2022-11-03T01:44:46;48.47;;;5.47;;
21657;SDS011;10990;48.174;9.782;2022-11-03T01:47:16;57.43;;;5.87;;
21657;SDS011;10990;48.174;9.782;2022-11-03T01:49:48;14.43;;;3.87;;
21657;SDS011;10990;48.174;9.782;2022-11-03T01:52:21;12.40;;;3.47;;
21657;SDS011;10990;48.174;9.782;2022-11-03T01:54:53;13.67;;;3.87;;
21657;SDS011;10990;48.174;9.782;2022-11-03T01:57:26;13.10;;;4.07;;
21657;SDS011;10990;48.174;9.782;2022-11-03T01:59:58;13.20;;;3.70;;
21657;SDS011;10990;48.174;9.782;2022-11-03T02:02:27;15.70;;;4.20;;
21657;SDS011;10990;48.174;9.782;2022-11-03T02:04:54;15.73;;;4.07;;
21657;SDS011;10990;48.174;9.782;2022-11-03T02:07:25;13.67;;;4.30;;
21657;SDS011;10990;48.174;9.782;2022-11-03T02:09:57;18.67;;;4.40;;
21657;SDS011;10990;48.174;9.782;2022-11-03T02:12:25;30.07;;;4.70;;
21657;SDS011;10990;48.174;9.782;2022-11-03T02:14:53;25.70;;;4.73;;
21657;SDS011;10990;48.174;9.782;2022-11-03T02:17:24;26.87;;;4.20;;
21657;SDS011;10990;48.174;9.782;2022-11-03T02:19:54;13.40;;;3.90;;
21657;SDS011;10990;48.174;9.782;2022-11-03T02:25:40;17.50;;;3.90;;
21657;SDS011;10990;48.174;9.782;2022-11-03T02:28:09;14.67;;;4.00;;
21657;SDS011;10990;48.174;9.782;2022-11-03T02:30:38;33.67;;;4.77;;
21657;SDS011;10990;48.174;9.782;2022-11-03T02:33:11;28.97;;;4.30;;
21657;SDS011;10990;48.174;9.782;2022-11-03T02:35:45;8.80;;;4.27;;
21657;SDS011;10990;48.174;9.782;2022-11-03T02:38:18;32.40;;;5.83;;
21657;SDS011;10990;48.174;9.782;2022-11-03T02:40:51;48.40;;;6.03;;
21657;SDS011;10990;48.174;9.782;2022-11-03T02:43:19;36.43;;;5.70;;
21657;SDS011;10990;48.174;9.782;2022-11-03T02:45:47;55.03;;;6.60;;
21657;SDS011;10990;48.174;9.782;2022-11-03T02:48:16;28.30;;;5.37;;
21657;SDS011;10990;48.174;9.782;2022-11-03T02:50:45;71.20;;;7.97;;
21657;SDS011;10990;48.174;9.782;2022-11-03T02:53:14;44.43;;;7.77;;
21657;SDS011;10990;48.174;9.782;2022-11-03T02:55:43;70.33;;;8.23;;
21657;SDS011;10990;48.174;9.782;2022-11-03T02:58:18;13.23;;;5.80;;
21657;SDS011;10990;48.174;9.782;2022-11-03T03:00:53;87.30;;;9.30;;
21657;SDS011;10990;48.174;9.782;2022-11-03T03:03:23;28.17;;;7.23;;
21657;SDS011;10990;48.174;9.782;2022-11-03T03:05:55;93.80;;;9.83;;
21657;SDS011;10990;48.174;9.782;2022-11-03T03:08:25;47.70;;;7.10;;
21657;SDS011;10990;48.174;9.782;2022-11-03T03:10:55;44.07;;;6.83;;
21657;SDS011;10990;48.174;9.782;2022-11-03T03:13:27;30.30;;;6.47;;
21657;SDS011;10990;48.174;9.782;2022-11-03T03:15:56;44.50;;;7.07;;
21657;SDS011;10990;48.174;9.782;2022-11-03T03:18:36;42.23;;;6.77;;
21657;SDS011;10990;48.174;9.782;2022-11-03T03:21:14;23.80;;;7.13;;
21657;SDS011;10990;48.174;9.782;2022-11-03T03:23:44;37.03;;;7.80;;
21657;SDS011;10990;48.174;9.782;2022-11-03T03:26:16;17.97;;;6.20;;
21657;SDS011;10990;48.174;9.782;2022-11-03T03:28:51;27.57;;;7.53;;
21657;SDS011;10990;48.174;9.782;2022-11-03T03:31:21;20.57;;;7.30;;
21657;SDS011;10990;48.174;9.782;2022-11-03T03:33:52;19.70;;;7.80;;
21657;SDS011;10990;48.174;9.782;2022-11-03T03:36:21;20.03;;;7.53;;
21657;SDS011;10990;48.174;9.782;2022-11-03T03:38:52;33.80;;;8.37;;
21657;SDS011;10990;48.174;9.782;2022-11-03T03:41:22;42.23;;;8.87;;
21657;SDS011;10990;48.174;9.782;2022-11-03T03:43:53;41.10;;;8.77;;
21657;SDS011;10990;48.174;9.782;2022-11-03T03:46:22;31.00;;;8.10;;
21657;SDS011;10990;48.174;9.782;2022-11-03T03:48:54;20.83;;;7.37;;
21657;SDS011;10990;48.174;9.782;2022-11-03T03:51:22;13.83;;;6.07;;
21657;SDS011;10990;48.174;9.782;2022-11-03T03:53:52;12.60;;;6.17;;
21657;SDS011;10990;48.174;9.782;2022-11-03T03:56:22;26.47;;;7.27;;
21657;SDS011;10990;48.174;9.782;2022-11-03T03:58:53;20.77;;;6.80;;
21657;SDS011;10990;48.174;9.782;2022-11-03T04:01:20;19.47;;;7.30;;
21657;SDS011;10990;48.174;9.782;2022-11-03T04:03:47;36.60;;;7.93;;
21657;SDS011;10990;48.174;9.782;2022-11-03T04:06:14;26.60;;;6.40;;
21657;SDS011;10990;48.174;9.782;2022-11-03T04:08:40;17.33;;;6.10;;
21657;SDS011;10990;48.174;9.782;2022-11-03T04:11:07;26.37;;;7.90;;
21657;SDS011;10990;48.174;9.782;2022-11-03T04:13:51;20.87;;;6.20;;
21657;SDS011;10990;48.174;9.782;2022-11-03T04:16:37;17.97;;;6.10;;
21657;SDS011;10990;48.174;9.782;2022-11-03T04:19:21;17.77;;;6.30;;
21657;SDS011;10990;48.174;9.782;2022-11-03T04:22:06;23.53;;;6.40;;
21657;SDS011;10990;48.174;9.782;2022-11-03T04:24:42;23.43;;;6.23;;
21657;SDS011;10990;48.174;9.782;2022-11-03T04:30:09;10.77;;;5.57;;
21657;SDS011;10990;48.174;9.782;2022-11-03T04:32:40;22.73;;;5.73;;
21657;SDS011;10990;48.174;9.782;2022-11-03T04:35:14;22.67;;;5.57;;
21657;SDS011;10990;48.174;9.782;2022-11-03T04:37:43;13.17;;;5.77;;
21657;SDS011;10990;48.174;9.782;2022-11-03T04:40:12;18.47;;;5.33;;
21657;SDS011;10990;48.174;9.782;2022-11-03T04:42:40;17.07;;;5.33;;
21657;SDS011;10990;48.174;9.782;2022-11-03T04:45:13;12.50;;;4.60;;
21657;SDS011;10990;48.174;9.782;2022-11-03T04:47:47;20.77;;;5.63;;
21657;SDS011;10990;48.174;9.782;2022-11-03T04:50:14;51.63;;;7.20;;
21657;SDS011;10990;48.174;9.782;2022-11-03T04:52:43;24.77;;;6.37;;
21657;SDS011;10990;48.174;9.782;2022-11-03T04:55:12;30.20;;;5.90;;
21657;SDS011;10990;48.174;9.782;2022-11-03T04:57:40;41.13;;;6.33;;
21657;SDS011;10990;48.174;9.782;2022-11-03T05:00:13;17.10;;;5.27;;
21657;SDS011;10990;48.174;9.782;2022-11-03T05:02:42;71.60;;;8.40;;
21657;SDS011;10990;48.174;9.782;2022-11-03T05:05:14;24.60;;;4.97;;
21657;SDS011;10990;48.174;9.782;2022-11-03T05:07:43;14.40;;;4.93;;
21657;SDS011;10990;48.174;9.782;2022-11-03T05:10:14;134.80;;;9.67;;
21657;SDS011;10990;48.174;9.782;2022-11-03T05:12:42;124.90;;;9.40;;
21657;SDS011;10990;48.174;9.782;2022-11-03T05:15:26;79.07;;;8.37;;
21657;SDS011;10990;48.174;9.782;2022-11-03T05:17:57;51.57;;;6.00;;
21657;SDS011;10990;48.174;9.782;2022-11-03T05:20:28;18.13;;;4.67;;
21657;SDS011;10990;48.174;9.782;2022-11-03T05:22:57;64.83;;;7.30;;
21657;SDS011;10990;48.174;9.782;2022-11-03T05:25:27;19.60;;;5.00;;
21657;SDS011;10990;48.174;9.782;2022-11-03T05:28:01;22.47;;;5.10;;
21657;SDS011;10990;48.174;9.782;2022-11-03T05:30:29;24.63;;;5.37;;
21657;SDS011;10990;48.174;9.782;2022-11-03T05:32:56;14.33;;;4.67;;
21657;SDS011;10990;48.174;9.782;2022-11-03T05:35:23;14.93;;;4.83;;
21657;SDS011;10990;48.174;9.782;2022-11-03T05:37:50;57.47;;;6.60;;
21657;SDS011;10990;48.174;9.782;2022-11-03T05:40:19;39.13;;;5.70;;
21657;SDS011;10990;48.174;9.782;2022-11-03T05:42:48;17.87;;;4.80;;
21657;SDS011;10990;48.174;9.782;2022-11-03T05:45:19;10.53;;;4.50;;
21657;SDS011;10990;48.174;9.782;2022-11-03T05:47:51;23.83;;;4.83;;
21657;SDS011;10990;48.174;9.782;2022-11-03T05:50:20;21.37;;;4.93;;
21657;SDS011;10990;48.174;9.782;2022-11-03T05:53:00;21.57;;;5.30;;
21657;SDS011;10990;48.174;9.782;2022-11-03T05:55:32;52.30;;;8.17;;
21657;SDS011;10990;48.174;9.782;2022-11-03T05:58:04;10.60;;;4.60;;
21657;SDS011;10990;48.174;9.782;2022-11-03T06:00:39;42.57;;;5.50;;
21657;SDS011;10990;48.174;9.782;2022-11-03T06:03:09;16.97;;;4.87;;
21657;SDS011;10990;48.174;9.782;2022-11-03T06:05:40;18.27;;;5.50;;
21657;SDS011;10990;48.174;9.782;2022-11-03T06:08:11;40.00;;;6.40;;
21657;SDS011;10990;48.174;9.782;2022-11-03T06:10:44;52.17;;;6.00;;
21657;SDS011;10990;48.174;9.782;2022-11-03T06:13:14;17.03;;;4.80;;
21657;SDS011;10990;48.174;9.782;2022-11-03T06:15:44;29.10;;;4.80;;
21657;SDS011;10990;48.174;9.782;2022-11-03T06:18:14;22.70;;;4.60;;
21657;SDS011;10990;48.174;9.782;2022-11-03T06:20:46;17.70;;;4.57;;
21657;SDS011;10990;48.174;9.782;2022-11-03T06:23:16;13.43;;;4.33;;
21657;SDS011;10990;48.174;9.782;2022-11-03T06:25:44;15.37;;;4.43;;
21657;SDS011;10990;48.174;9.782;2022-11-03T06:28:13;19.63;;;4.90;;
21657;SDS011;10990;48.174;9.782;2022-11-03T06:30:43;7.47;;;4.33;;
21657;SDS011;10990;48.174;9.782;2022-11-03T06:33:14;16.37;;;4.50;;
21657;SDS011;10990;48.174;9.782;2022-11-03T06:35:50;12.33;;;4.13;;
21657;SDS011;10990;48.174;9.782;2022-11-03T06:38:20;7.73;;;4.70;;
21657;SDS011;10990;48.174;9.782;2022-11-03T06:40:49;23.60;;;5.00;;
21657;SDS011;10990;48.174;9.782;2022-11-03T06:43:17;7.97;;;3.90;;
21657;SDS011;10990;48.174;9.782;2022-11-03T06:45:47;6.80;;;4.20;;
21657;SDS011;10990;48.174;9.782;2022-11-03T06:48:21;17.73;;;5.57;;
21657;SDS011;10990;48.174;9.782;2022-11-03T06:50:49;28.93;;;5.60;;
21657;SDS011;10990;48.174;9.782;2022-11-03T06:53:20;18.97;;;5.33;;
21657;SDS011;10990;48.174;9.782;2022-11-03T06:55:50;16.37;;;4.80;;
21657;SDS011;10990;48.174;9.782;2022-11-03T06:58:18;44.17;;;6.00;;
21657;SDS011;10990;48.174;9.782;2022-11-03T07:00:55;13.00;;;4.73;;
21657;SDS011;10990;48.174;9.782;2022-11-03T07:03:25;10.00;;;4.47;;
21657;SDS011;10990;48.174;9.782;2022-11-03T07:05:56;9.70;;;4.20;;
21657;SDS011;10990;48.174;9.782;2022-11-03T07:08:24;10.80;;;4.67;;
21657;SDS011;10990;48.174;9.782;2022-11-03T07:10:58;11.37;;;4.57;;
21657;SDS011;10990;48.174;9.782;2022-11-03T07:13:28;17.73;;;4.83;;
21657;SDS011;10990;48.174;9.782;2022-11-03T07:15:57;18.17;;;4.53;;
21657;SDS011;10990;48.174;9.782;2022-11-03T07:18:26;14.27;;;4.87;;
21657;SDS011;10990;48.174;9.782;2022-11-03T07:20:56;47.37;;;6.47;;
21657;SDS011;10990;48.174;9.782;2022-11-03T07:23:24;21.97;;;5.27;;
21657;SDS011;10990;48.174;9.782;2022-11-03T07:25:55;20.13;;;5.00;;
21657;SDS011;10990;48.174;9.782;2022-11-03T07:28:25;18.63;;;4.53;;
21657;SDS011;10990;48.174;9.782;2022-11-03T07:30:58;11.33;;;4.53;;
21657;SDS011;10990;48.174;9.782;2022-11-03T07:33:28;10.37;;;4.73;;
21657;SDS011;10990;48.174;9.782;2022-11-03T07:35:56;24.97;;;5.63;;
21657;SDS011;10990;48.174;9.782;2022-11-03T07:38:25;11.13;;;5.13;;
21657;SDS011;10990;48.174;9.782;2022-11-03T07:40:55;13.27;;;5.13;;
21657;SDS011;10990;48.174;9.782;2022-11-03T07:43:24;23.33;;;5.37;;
21657;SDS011;10990;48.174;9.782;2022-11-03T07:45:55;11.67;;;4.77;;
21657;SDS011;10990;48.174;9.782;2022-11-03T07:48:25;12.80;;;4.83;;
21657;SDS011;10990;48.174;9.782;2022-11-03T07:50:58;19.40;;;5.47;;
21657;SDS011;10990;48.174;9.782;2022-11-03T07:53:31;14.13;;;5.47;;
21657;SDS011;10990;48.174;9.782;2022-11-03T07:56:01;28.87;;;5.97;;
21657;SDS011;10990;48.174;9.782;2022-11-03T07:58:40;9.57;;;4.87;;
21657;SDS011;10990;48.174;9.782;2022-11-03T08:01:15;15.33;;;5.80;;
21657;SDS011;10990;48.174;9.782;2022-11-03T08:03:49;11.70;;;5.90;;
21657;SDS011;10990;48.174;9.782;2022-11-03T08:06:16;16.73;;;6.53;;
21657;SDS011;10990;48.174;9.782;2022-11-03T08:08:43;9.03;;;5.03;;
21657;SDS011;10990;48.174;9.782;2022-11-03T08:11:10;11.53;;;5.50;;
21657;SDS011;10990;48.174;9.782;2022-11-03T08:13:36;8.07;;;5.47;;
21657;SDS011;10990;48.174;9.782;2022-11-03T08:16:03;7.70;;;5.67;;
21657;SDS011;10990;48.174;9.782;2022-11-03T08:18:31;6.27;;;5.13;;
21657;SDS011;10990;48.174;9.782;2022-11-03T08:20:59;5.70;;;5.00;;
21657;SDS011;10990;48.174;9.782;2022-11-03T08:23:26;5.80;;;4.80;;
21657;SDS011;10990;48.174;9.782;2022-11-03T08:25:52;6.77;;;5.33;;
21657;SDS011;10990;48.174;9.782;2022-11-03T08:28:19;7.00;;;5.23;;
21657;SDS011;10990;48.174;9.782;2022-11-03T08:30:46;6.07;;;5.33;;
21657;SDS011;10990;48.174;9.782;2022-11-03T08:33:13;7.03;;;5.77;;
21657;SDS011;10990;48.174;9.782;2022-11-03T08:35:39;10.33;;;6.60;;
21657;SDS011;10990;48.174;9.782;2022-11-03T08:38:08;7.87;;;5.80;;
21657;SDS011;10990;48.174;9.782;2022-11-03T08:40:34;12.30;;;6.80;;
21657;SDS011;10990;48.174;9.782;2022-11-03T08:43:01;7.57;;;5.63;;
21657;SDS011;10990;48.174;9.782;2022-11-03T08:45:29;7.50;;;5.77;;
21657;SDS011;10990;48.174;9.782;2022-11-03T08:47:56;7.67;;;6.00;;
21657;SDS011;10990;48.174;9.782;2022-11-03T08:50:23;10.10;;;6.60;;
21657;SDS011;10990;48.174;9.782;2022-11-03T08:52:50;7.63;;;5.90;;
21657;SDS011;10990;48.174;9.782;2022-11-03T08:55:18;8.70;;;5.90;;
21657;SDS011;10990;48.174;9.782;2022-11-03T08:57:45;9.60;;;6.73;;
21657;SDS011;10990;48.174;9.782;2022-11-03T09:00:12;9.93;;;6.47;;
21657;SDS011;10990;48.174;9.782;2022-11-03T09:02:41;8.37;;;6.40;;
21657;SDS011;10990;48.174;9.782;2022-11-03T09:05:08;8.10;;;6.63;;
21657;SDS011;10990;48.174;9.782;2022-11-03T09:07:36;10.73;;;7.10;;
21657;SDS011;10990;48.174;9.782;2022-11-03T09:10:04;9.30;;;6.87;;
21657;SDS011;10990;48.174;9.782;2022-11-03T09:12:33;9.13;;;6.73;;
21657;SDS011;10990;48.174;9.782;2022-11-03T09:15:00;10.37;;;6.20;;
21657;SDS011;10990;48.174;9.782;2022-11-03T09:17:26;12.60;;;7.67;;
21657;SDS011;10990;48.174;9.782;2022-11-03T09:19:53;8.77;;;6.60;;
21657;SDS011;10990;48.174;9.782;2022-11-03T09:22:20;12.77;;;7.47;;
21657;SDS011;10990;48.174;9.782;2022-11-03T09:24:47;11.67;;;7.57;;
21657;SDS011;10990;48.174;9.782;2022-11-03T09:27:14;10.30;;;7.33;;
21657;SDS011;10990;48.174;9.782;2022-11-03T09:29:42;9.53;;;7.27;;
21657;SDS011;10990;48.174;9.782;2022-11-03T09:32:09;9.57;;;7.23;;
21657;SDS011;10990;48.174;9.782;2022-11-03T09:34:36;13.33;;;7.50;;
21657;SDS011;10990;48.174;9.782;2022-11-03T09:37:02;11.40;;;7.73;;
21657;SDS011;10990;48.174;9.782;2022-11-03T09:39:29;13.40;;;7.40;;
21657;SDS011;10990;48.174;9.782;2022-11-03T09:41:56;11.00;;;6.93;;
21657;SDS011;10990;48.174;9.782;2022-11-03T09:44:24;10.47;;;7.70;;
21657;SDS011;10990;48.174;9.782;2022-11-03T09:46:53;12.77;;;7.87;;
21657;SDS011;10990;48.174;9.782;2022-11-03T09:49:20;12.70;;;7.90;;
21657;SDS011;10990;48.174;9.782;2022-11-03T09:51:47;11.87;;;8.73;;
21657;SDS011;10990;48.174;9.782;2022-11-03T09:54:14;11.70;;;8.07;;
21657;SDS011;10990;48.174;9.782;2022-11-03T09:56:42;13.17;;;8.30;;
21657;SDS011;10990;48.174;9.782;2022-11-03T09:59:14;12.17;;;8.73;;
21657;SDS011;10990;48.174;9.782;2022-11-03T10:01:43;12.83;;;8.07;;
21657;SDS011;10990;48.174;9.782;2022-11-03T10:04:14;12.73;;;8.23;;
21657;SDS011;10990;48.174;9.782;2022-11-03T10:06:41;13.00;;;9.30;;
21657;SDS011;10990;48.174;9.782;2022-11-03T10:09:09;13.13;;;8.67;;
21657;SDS011;10990;48.174;9.782;2022-11-03T10:11:41;13.73;;;8.33;;
21657;SDS011;10990;48.174;9.782;2022-11-03T10:14:08;12.03;;;8.40;;
21657;SDS011;10990;48.174;9.782;2022-11-03T10:16:38;11.37;;;8.57;;
21657;SDS011;10990;48.174;9.782;2022-11-03T10:19:08;11.63;;;8.07;;
21657;SDS011;10990;48.174;9.782;2022-11-03T10:21:38;11.80;;;8.20;;
21657;SDS011;10990;48.174;9.782;2022-11-03T10:24:09;13.47;;;9.13;;
21657;SDS011;10990;48.174;9.782;2022-11-03T10:26:43;11.63;;;8.10;;
21657;SDS011;10990;48.174;9.782;2022-11-03T10:29:18;11.30;;;7.80;;
21657;SDS011;10990;48.174;9.782;2022-11-03T10:31:47;12.43;;;8.63;;
21657;SDS011;10990;48.174;9.782;2022-11-03T10:34:23;10.83;;;7.90;;
21657;SDS011;10990;48.174;9.782;2022-11-03T10:37:10;15.00;;;8.97;;
21657;SDS011;10990;48.174;9.782;2022-11-03T10:39:41;9.63;;;7.57;;
21657;SDS011;10990;48.174;9.782;2022-11-03T10:42:15;11.17;;;7.60;;
21657;SDS011;10990;48.174;9.782;2022-11-03T10:44:44;9.10;;;6.90;;
21657;SDS011;10990;48.174;9.782;2022-11-03T10:47:21;10.43;;;8.00;;
21657;SDS011;10990;48.174;9.782;2022-11-03T10:49:52;9.63;;;7.37;;
21657;SDS011;10990;48.174;9.782;2022-11-03T10:52:22;10.30;;;7.20;;
21657;SDS011;10990;48.174;9.782;2022-11-03T10:54:51;11.27;;;8.07;;
21657;SDS011;10990;48.174;9.782;2022-11-03T10:57:20;9.77;;;7.53;;
21657;SDS011;10990;48.174;9.782;2022-11-03T10:59:48;12.10;;;9.10;;
21657;SDS011;10990;48.174;9.782;2022-11-03T11:02:17;12.33;;;8.77;;
21657;SDS011;10990;48.174;9.782;2022-11-03T11:04:46;14.67;;;9.23;;
21657;SDS011;10990;48.174;9.782;2022-11-03T11:07:18;10.27;;;8.03;;
21657;SDS011;10990;48.174;9.782;2022-11-03T11:09:50;10.93;;;8.10;;
21657;SDS011;10990;48.174;9.782;2022-11-03T11:12:19;14.87;;;9.90;;
21657;SDS011;10990;48.174;9.782;2022-11-03T11:14:54;13.27;;;9.10;;
21657;SDS011;10990;48.174;9.782;2022-11-03T11:20:27;15.07;;;9.50;;
21657;SDS011;10990;48.174;9.782;2022-11-03T11:44:54;14.53;;;9.77;;
21657;SDS011;10990;48.174;9.782;2022-11-03T11:47:24;13.23;;;8.80;;
21657;SDS011;10990;48.174;9.782;2022-11-03T11:49:59;12.03;;;8.40;;
21657;SDS011;10990;48.174;9.782;2022-11-03T11:52:38;12.43;;;8.83;;
21657;SDS011;10990;48.174;9.782;2022-11-03T11:55:12;13.03;;;9.47;;
21657;SDS011;10990;48.174;9.782;2022-11-03T11:57:46;12.17;;;8.70;;
21657;SDS011;10990;48.174;9.782;2022-11-03T12:00:17;12.27;;;9.00;;
21657;SDS011;10990;48.174;9.782;2022-11-03T12:02:46;13.33;;;9.90;;
21657;SDS011;10990;48.174;9.782;2022-11-03T12:05:20;12.73;;;9.10;;
21657;SDS011;10990;48.174;9.782;2022-11-03T12:07:50;12.33;;;8.77;;
21657;SDS011;10990;48.174;9.782;2022-11-03T12:10:18;11.70;;;8.60;;
21657;SDS011;10990;48.174;9.782;2022-11-03T12:12:48;12.30;;;9.03;;
21657;SDS011;10990;48.174;9.782;2022-11-03T12:18:32;13.23;;;9.07;;
21657;SDS011;10990;48.174;9.782;2022-11-03T12:21:01;11.97;;;8.83;;
21657;SDS011;10990;48.174;9.782;2022-11-03T12:23:36;14.50;;;9.90;;
21657;SDS011;10990;48.174;9.782;2022-11-03T12:26:05;13.37;;;10.27;;
21657;SDS011;10990;48.174;9.782;2022-11-03T12:28:41;13.53;;;10.10;;
21657;SDS011;10990;48.174;9.782;2022-11-03T12:31:08;14.50;;;9.50;;
21657;SDS011;10990;48.174;9.782;2022-11-03T12:33:36;18.90;;;12.77;;
21657;SDS011;10990;48.174;9.782;2022-11-03T12:36:03;14.23;;;10.20;;
21657;SDS011;10990;48.174;9.782;2022-11-03T12:38:31;12.90;;;9.17;;
21657;SDS011;10990;48.174;9.782;2022-11-03T12:40:58;14.63;;;8.73;;
21657;SDS011;10990;48.174;9.782;2022-11-03T12:43:47;12.17;;;8.77;;
21657;SDS011;10990;48.174;9.782;2022-11-03T12:46:15;16.07;;;10.47;;
21657;SDS011;10990;48.174;9.782;2022-11-03T12:48:42;13.80;;;10.40;;
21657;SDS011;10990;48.174;9.782;2022-11-03T12:51:12;16.27;;;9.50;;
21657;SDS011;10990;48.174;9.782;2022-11-03T12:53:40;13.93;;;8.93;;
21657;SDS011;10990;48.174;9.782;2022-11-03T12:56:07;14.80;;;9.80;;
21657;SDS011;10990;48.174;9.782;2022-11-03T12:58:35;13.83;;;9.20;;
21657;SDS011;10990;48.174;9.782;2022-11-03T13:01:03;12.60;;;9.00;;
21657;SDS011;10990;48.174;9.782;2022-11-03T13:03:31;15.57;;;10.57;;
21657;SDS011;10990;48.174;9.782;2022-11-03T13:05:58;16.17;;;9.67;;
21657;SDS011;10990;48.174;9.782;2022-11-03T13:08:28;13.57;;;9.30;;
21657;SDS011;10990;48.174;9.782;2022-11-03T13:10:55;14.30;;;8.80;;
21657;SDS011;10990;48.174;9.782;2022-11-03T13:13:22;17.83;;;10.67;;
21657;SDS011;10990;48.174;9.782;2022-11-03T13:15:49;15.43;;;10.33;;
21657;SDS011;10990;48.174;9.782;2022-11-03T13:18:18;12.67;;;9.17;;
21657;SDS011;10990;48.174;9.782;2022-11-03T13:20:45;14.20;;;8.40;;
21657;SDS011;10990;48.174;9.782;2022-11-03T13:23:12;22.83;;;11.10;;
21657;SDS011;10990;48.174;9.782;2022-11-03T13:25:39;17.70;;;10.33;;
21657;SDS011;10990;48.174;9.782;2022-11-03T13:28:05;22.83;;;12.00;;
21657;SDS011;10990;48.174;9.782;2022-11-03T13:30:32;20.40;;;10.83;;
21657;SDS011;10990;48.174;9.782;2022-11-03T13:32:59;19.33;;;10.20;;
21657;SDS011;10990;48.174;9.782;2022-11-03T13:35:27;14.77;;;9.13;;
21657;SDS011;10990;48.174;9.782;2022-11-03T13:37:54;21.40;;;10.47;;
21657;SDS011;10990;48.174;9.782;2022-11-03T13:40:21;18.33;;;9.67;;
21657;SDS011;10990;48.174;9.782;2022-11-03T13:42:47;16.43;;;9.70;;
21657;SDS011;10990;48.174;9.782;2022-11-03T13:45:14;16.60;;;9.70;;
21657;SDS011;10990;48.174;9.782;2022-11-03T13:47:41;18.60;;;9.47;;
21657;SDS011;10990;48.174;9.782;2022-11-03T13:50:08;20.33;;;10.73;;
21657;SDS011;10990;48.174;9.782;2022-11-03T13:52:36;16.67;;;9.90;;
21657;SDS011;10990;48.174;9.782;2022-11-03T13:55:03;19.80;;;10.07;;
21657;SDS011;10990;48.174;9.782;2022-11-03T13:57:30;16.40;;;9.63;;
21657;SDS011;10990;48.174;9.782;2022-11-03T13:59:57;18.77;;;11.13;;
21657;SDS011;10990;48.174;9.782;2022-11-03T14:02:24;19.50;;;11.00;;
21657;SDS011;10990;48.174;9.782;2022-11-03T14:04:50;18.97;;;10.87;;
21657;SDS011;10990;48.174;9.782;2022-11-03T14:07:17;20.67;;;10.60;;
21657;SDS011;10990;48.174;9.782;2022-11-03T14:09:45;20.47;;;11.30;;
21657;SDS011;10990;48.174;9.782;2022-11-03T14:12:12;19.03;;;11.10;;
21657;SDS011;10990;48.174;9.782;2022-11-03T14:15:00;19.50;;;11.87;;
21657;SDS011;10990;48.174;9.782;2022-11-03T14:17:29;17.30;;;11.00;;
21657;SDS011;10990;48.174;9.782;2022-11-03T14:19:56;22.83;;;11.07;;
21657;SDS011;10990;48.174;9.782;2022-11-03T14:22:23;20.20;;;11.50;;
21657;SDS011;10990;48.174;9.782;2022-11-03T14:24:51;22.03;;;13.23;;
21657;SDS011;10990;48.174;9.782;2022-11-03T14:27:18;21.93;;;12.83;;
21657;SDS011;10990;48.174;9.782;2022-11-03T14:29:45;20.53;;;12.50;;
21657;SDS011;10990;48.174;9.782;2022-11-03T14:32:13;24.73;;;13.10;;
21657;SDS011;10990;48.174;9.782;2022-11-03T14:34:41;26.00;;;13.13;;
21657;SDS011;10990;48.174;9.782;2022-11-03T14:37:09;27.47;;;14.57;;
21657;SDS011;10990;48.174;9.782;2022-11-03T14:39:36;23.37;;;12.37;;
21657;SDS011;10990;48.174;9.782;2022-11-03T14:42:05;19.20;;;11.93;;
21657;SDS011;10990;48.174;9.782;2022-11-03T14:44:39;18.90;;;11.80;;
21657;SDS011;10990;48.174;9.782;2022-11-03T14:47:07;18.50;;;11.60;;
21657;SDS011;10990;48.174;9.782;2022-11-03T14:49:35;16.47;;;11.00;;
21657;SDS011;10990;48.174;9.782;2022-11-03T14:52:03;16.13;;;11.70;;
21657;SDS011;10990;48.174;9.782;2022-11-03T14:54:31;16.40;;;11.70;;
21657;SDS011;10990;48.174;9.782;2022-11-03T14:56:59;20.77;;;13.23;;
21657;SDS011;10990;48.174;9.782;2022-11-03T14:59:27;18.77;;;12.00;;
21657;SDS011;10990;48.174;9.782;2022-11-03T15:01:54;19.30;;;11.90;;
21657;SDS011;10990;48.174;9.782;2022-11-03T15:04:21;17.30;;;12.30;;
21657;SDS011;10990;48.174;9.782;2022-11-03T15:06:48;19.80;;;11.70;;
21657;SDS011;10990;48.174;9.782;2022-11-03T15:09:15;19.27;;;12.20;;
21657;SDS011;10990;48.174;9.782;2022-11-03T15:11:44;17.47;;;11.60;;
21657;SDS011;10990;48.174;9.782;2022-11-03T15:14:11;15.03;;;11.00;;
21657;SDS011;10990;48.174;9.782;2022-11-03T15:16:39;16.80;;;11.27;;
21657;SDS011;10990;48.174;9.782;2022-11-03T15:19:08;17.80;;;12.17;;
21657;SDS011;10990;48.174;9.782;2022-11-03T15:21:34;16.47;;;11.33;;